sensor_id;sensor_type;location;lat;lon;timestamp;pressure;altitude;pressure_sealevel;temperature;humidity
36726;BME280;44936;52.086;5.150;2024-02-15T00:01:18;102397.16;;;12.77;100.00
36726;BME280;44936;52.086;5.150;2024-02-15T00:03:44;102433.66;;;13.05;100.00
36726;BME280;44936;52.086;5.150;2024-02-15T00:06:09;102398.19;;;12.85;100.00
36726;BME280;44936;52.086;5.150;2024-02-15T00:08:34;102409.56;;;12.83;100.00
36726;BME280;44936;52.086;5.150;2024-02-15T00:11:00;102433.53;;;12.98;100.00
36726;BME280;44936;52.086;5.150;2024-02-15T00:13:25;102435.34;;;12.99;100.00
36726;BME280;44936;52.086;5.150;2024-02-15T00:15:50;102384.84;;;12.74;100.00
36726;BME280;44936;52.086;5.150;2024-02-15T00:18:17;102423.13;;;13.04;100.00
36726;BME280;44936;52.086;5.150;2024-02-15T00:20:43;102429.97;;;12.94;100.00
36726;BME280;44936;52.086;5.150;2024-02-15T00:23:11;102431.78;;;12.98;100.00
36726;BME280;44936;52.086;5.150;2024-02-15T00:25:37;102418.59;;;12.97;100.00
36726;BME280;44936;52.086;5.150;2024-02-15T00:28:02;102429.28;;;13.06;100.00
36726;BME280;44936;52.086;5.150;2024-02-15T00:30:28;102407.88;;;12.88;100.00
36726;BME280;44936;52.086;5.150;2024-02-15T00:32:54;102395.38;;;12.74;100.00
36726;BME280;44936;52.086;5.150;2024-02-15T00:35:20;102423.03;;;12.99;100.00
36726;BME280;44936;52.086;5.150;2024-02-15T00:37:45;102406.22;;;12.91;100.00
36726;BME280;44936;52.086;5.150;2024-02-15T00:40:11;102412.59;;;13.05;100.00
36726;BME280;44936;52.086;5.150;2024-02-15T00:42:37;102401.97;;;12.99;100.00
36726;BME280;44936;52.086;5.150;2024-02-15T00:45:05;102399.41;;;13.04;100.00
36726;BME280;44936;52.086;5.150;2024-02-15T00:47:33;102408.22;;;13.06;100.00
36726;BME280;44936;52.086;5.150;2024-02-15T00:49:58;102382.56;;;12.94;100.00
36726;BME280;44936;52.086;5.150;2024-02-15T00:52:23;102378.13;;;12.92;100.00
36726;BME280;44936;52.086;5.150;2024-02-15T00:54:49;102366.56;;;12.84;100.00
36726;BME280;44936;52.086;5.150;2024-02-15T00:57:14;102373.78;;;12.95;100.00
36726;BME280;44936;52.086;5.150;2024-02-15T00:59:39;102362.25;;;12.89;100.00
36726;BME280;44936;52.086;5.150;2024-02-15T01:02:05;102388.81;;;12.99;100.00
36726;BME280;44936;52.086;5.150;2024-02-15T01:04:34;102386.91;;;12.91;100.00
36726;BME280;44936;52.086;5.150;2024-02-15T01:06:59;102392.25;;;12.97;100.00
36726;BME280;44936;52.086;5.150;2024-02-15T01:09:25;102355.72;;;12.67;100.00
36726;BME280;44936;52.086;5.150;2024-02-15T01:11:50;102375.34;;;12.83;100.00
36726;BME280;44936;52.086;5.150;2024-02-15T01:14:15;102397.38;;;12.89;100.00
36726;BME280;44936;52.086;5.150;2024-02-15T01:16:44;102398.25;;;12.88;100.00
36726;BME280;44936;52.086;5.150;2024-02-15T01:19:09;102397.22;;;12.80;100.00
36726;BME280;44936;52.086;5.150;2024-02-15T01:21:35;102367.03;;;12.61;100.00
36726;BME280;44936;52.086;5.150;2024-02-15T01:24:01;102392.09;;;12.89;100.00
36726;BME280;44936;52.086;5.150;2024-02-15T01:26:28;102394.56;;;12.79;100.00
36726;BME280;44936;52.086;5.150;2024-02-15T01:28:53;102383.00;;;12.70;100.00
36726;BME280;44936;52.086;5.150;2024-02-15T01:31:18;102338.72;;;12.48;100.00
36726;BME280;44936;52.086;5.150;2024-02-15T01:33:44;102353.13;;;12.68;100.00
36726;BME280;44936;52.086;5.150;2024-02-15T01:36:16;102354.72;;;12.60;100.00
36726;BME280;44936;52.086;5.150;2024-02-15T01:38:42;102348.56;;;12.60;100.00
36726;BME280;44936;52.086;5.150;2024-02-15T01:41:08;102376.09;;;12.77;100.00
36726;BME280;44936;52.086;5.150;2024-02-15T01:43:35;102369.03;;;12.74;100.00
36726;BME280;44936;52.086;5.150;2024-02-15T01:46:01;102383.09;;;12.75;100.00
36726;BME280;44936;52.086;5.150;2024-02-15T01:48:31;102388.38;;;12.76;100.00
36726;BME280;44936;52.086;5.150;2024-02-15T01:50:57;102364.72;;;12.80;100.00
36726;BME280;44936;52.086;5.150;2024-02-15T01:53:24;102351.31;;;12.64;100.00
36726;BME280;44936;52.086;5.150;2024-02-15T01:55:52;102330.00;;;12.52;100.00
36726;BME280;44936;52.086;5.150;2024-02-15T01:58:18;102326.56;;;12.55;100.00
36726;BME280;44936;52.086;5.150;2024-02-15T02:00:45;102369.19;;;12.82;100.00
36726;BME280;44936;52.086;5.150;2024-02-15T02:03:13;102344.31;;;12.66;100.00
36726;BME280;44936;52.086;5.150;2024-02-15T02:05:40;102354.09;;;12.73;100.00
36726;BME280;44936;52.086;5.150;2024-02-15T02:08:06;102329.53;;;12.74;100.00
36726;BME280;44936;52.086;5.150;2024-02-15T02:10:37;102322.28;;;12.63;100.00
36726;BME280;44936;52.086;5.150;2024-02-15T02:13:03;102296.75;;;12.56;100.00
36726;BME280;44936;52.086;5.150;2024-02-15T02:15:28;102345.38;;;12.76;100.00
36726;BME280;44936;52.086;5.150;2024-02-15T02:17:58;102362.16;;;12.83;100.00
36726;BME280;44936;52.086;5.150;2024-02-15T02:20:25;102350.63;;;12.76;100.00
36726;BME280;44936;52.086;5.150;2024-02-15T02:22:53;102312.69;;;12.63;100.00
36726;BME280;44936;52.086;5.150;2024-02-15T02:25:20;102312.59;;;12.59;100.00
36726;BME280;44936;52.086;5.150;2024-02-15T02:27:47;102313.47;;;12.59;100.00
36726;BME280;44936;52.086;5.150;2024-02-15T02:30:15;102338.34;;;12.75;100.00
36726;BME280;44936;52.086;5.150;2024-02-15T02:32:42;102330.28;;;12.67;100.00
36726;BME280;44936;52.086;5.150;2024-02-15T02:35:08;102345.97;;;12.61;100.00
36726;BME280;44936;52.086;5.150;2024-02-15T02:37:37;102337.19;;;12.61;100.00
36726;BME280;44936;52.086;5.150;2024-02-15T02:40:04;102351.31;;;12.64;100.00
36726;BME280;44936;52.086;5.150;2024-02-15T02:42:29;102328.38;;;12.59;100.00
36726;BME280;44936;52.086;5.150;2024-02-15T02:44:55;102311.53;;;12.49;100.00
36726;BME280;44936;52.086;5.150;2024-02-15T02:47:20;102337.19;;;12.62;100.00
36726;BME280;44936;52.086;5.150;2024-02-15T02:49:46;102332.81;;;12.63;100.00
36726;BME280;44936;52.086;5.150;2024-02-15T02:52:11;102328.41;;;12.62;100.00
36726;BME280;44936;52.086;5.150;2024-02-15T02:54:37;102332.66;;;12.54;100.00
36726;BME280;44936;52.086;5.150;2024-02-15T02:57:02;102332.75;;;12.58;100.00
36726;BME280;44936;52.086;5.150;2024-02-15T02:59:33;102304.50;;;12.48;100.00
36726;BME280;44936;52.086;5.150;2024-02-15T03:01:59;102334.69;;;12.68;100.00
36726;BME280;44936;52.086;5.150;2024-02-15T03:04:24;102314.34;;;12.58;100.00
36726;BME280;44936;52.086;5.150;2024-02-15T03:06:49;102322.13;;;12.54;100.00
36726;BME280;44936;52.086;5.150;2024-02-15T03:09:15;102273.50;;;12.33;100.00
36726;BME280;44936;52.086;5.150;2024-02-15T03:11:40;102292.97;;;12.43;100.00
36726;BME280;44936;52.086;5.150;2024-02-15T03:14:05;102311.56;;;12.52;100.00
36726;BME280;44936;52.086;5.150;2024-02-15T03:16:31;102333.75;;;12.63;100.00
36726;BME280;44936;52.086;5.150;2024-02-15T03:18:57;102295.38;;;12.29;100.00
36726;BME280;44936;52.086;5.150;2024-02-15T03:21:22;102288.63;;;12.45;100.00
36726;BME280;44936;52.086;5.150;2024-02-15T03:23:48;102324.19;;;12.71;100.00
36726;BME280;44936;52.086;5.150;2024-02-15T03:26:13;102281.56;;;12.42;100.00
36726;BME280;44936;52.086;5.150;2024-02-15T03:28:39;102311.72;;;12.60;100.00
36726;BME280;44936;52.086;5.150;2024-02-15T03:31:04;102314.34;;;12.58;100.00
36726;BME280;44936;52.086;5.150;2024-02-15T03:33:30;102320.59;;;12.63;100.00
36726;BME280;44936;52.086;5.150;2024-02-15T03:35:59;102297.41;;;12.45;100.00
36726;BME280;44936;52.086;5.150;2024-02-15T03:38:26;102321.38;;;12.59;100.00
36726;BME280;44936;52.086;5.150;2024-02-15T03:40:52;102316.88;;;12.54;100.00
36726;BME280;44936;52.086;5.150;2024-02-15T03:43:17;102311.66;;;12.55;100.00
36726;BME280;44936;52.086;5.150;2024-02-15T03:45:43;102314.28;;;12.55;100.00
36726;BME280;44936;52.086;5.150;2024-02-15T03:48:10;102290.34;;;12.43;100.00
36726;BME280;44936;52.086;5.150;2024-02-15T03:50:35;102264.75;;;12.33;100.00
36726;BME280;44936;52.086;5.150;2024-02-15T03:53:00;102291.22;;;12.42;100.00
36726;BME280;44936;52.086;5.150;2024-02-15T03:55:25;102258.63;;;12.35;100.00
36726;BME280;44936;52.086;5.150;2024-02-15T03:57:51;102270.88;;;12.33;100.00
36726;BME280;44936;52.086;5.150;2024-02-15T04:00:17;102315.38;;;12.68;100.00
36726;BME280;44936;52.086;5.150;2024-02-15T04:02:46;102318.03;;;12.69;100.00
36726;BME280;44936;52.086;5.150;2024-02-15T04:05:14;102318.91;;;12.68;100.00
36726;BME280;44936;52.086;5.150;2024-02-15T04:07:39;102287.00;;;12.52;100.00
36726;BME280;44936;52.086;5.150;2024-02-15T04:10:05;102311.00;;;12.68;100.00
36726;BME280;44936;52.086;5.150;2024-02-15T04:12:31;102304.84;;;12.68;100.00
36726;BME280;44936;52.086;5.150;2024-02-15T04:14:57;102313.84;;;12.81;100.00
36726;BME280;44936;52.086;5.150;2024-02-15T04:17:30;102303.91;;;12.64;100.00
36726;BME280;44936;52.086;5.150;2024-02-15T04:19:58;102273.84;;;12.52;100.00
36726;BME280;44936;52.086;5.150;2024-02-15T04:22:23;102300.56;;;12.73;100.00
36726;BME280;44936;52.086;5.150;2024-02-15T04:24:49;102262.31;;;12.45;100.00
36726;BME280;44936;52.086;5.150;2024-02-15T04:27:15;102283.41;;;12.46;100.00
36726;BME280;44936;52.086;5.150;2024-02-15T04:29:41;102270.38;;;12.54;100.00
36726;BME280;44936;52.086;5.150;2024-02-15T04:32:09;102303.03;;;12.64;100.00
36726;BME280;44936;52.086;5.150;2024-02-15T04:34:38;102281.88;;;12.58;100.00
36726;BME280;44936;52.086;5.150;2024-02-15T04:37:04;102298.66;;;12.64;100.00
36726;BME280;44936;52.086;5.150;2024-02-15T04:39:33;102293.56;;;12.73;100.00
36726;BME280;44936;52.086;5.150;2024-02-15T04:41:58;102288.16;;;12.67;100.00
36726;BME280;44936;52.086;5.150;2024-02-15T04:44:23;102289.00;;;12.63;100.00
36726;BME280;44936;52.086;5.150;2024-02-15T04:46:53;102295.38;;;12.79;100.00
36726;BME280;44936;52.086;5.150;2024-02-15T04:49:19;102261.72;;;12.61;100.00
36726;BME280;44936;52.086;5.150;2024-02-15T04:51:44;102262.63;;;12.62;100.00
36726;BME280;44936;52.086;5.150;2024-02-15T04:54:10;102246.78;;;12.59;100.00
36726;BME280;44936;52.086;5.150;2024-02-15T04:56:39;102240.50;;;12.51;100.00
36726;BME280;44936;52.086;5.150;2024-02-15T04:59:05;102264.38;;;12.61;100.00
36726;BME280;44936;52.086;5.150;2024-02-15T05:01:34;102270.63;;;12.68;100.00
36726;BME280;44936;52.086;5.150;2024-02-15T05:03:59;102288.38;;;12.80;100.00
36726;BME280;44936;52.086;5.150;2024-02-15T05:06:24;102282.88;;;12.64;100.00
36726;BME280;44936;52.086;5.150;2024-02-15T05:08:54;102274.13;;;12.67;100.00
36726;BME280;44936;52.086;5.150;2024-02-15T05:11:21;102307.63;;;12.75;100.00
36726;BME280;44936;52.086;5.150;2024-02-15T05:13:47;102264.38;;;12.63;100.00
36726;BME280;44936;52.086;5.150;2024-02-15T05:16:16;102305.19;;;12.89;100.00
36726;BME280;44936;52.086;5.150;2024-02-15T05:18:41;102286.44;;;12.69;100.00
36726;BME280;44936;52.086;5.150;2024-02-15T05:21:07;102299.00;;;12.86;100.00
36726;BME280;44936;52.086;5.150;2024-02-15T05:23:35;102288.38;;;12.80;100.00
36726;BME280;44936;52.086;5.150;2024-02-15T05:26:00;102256.63;;;12.70;100.00
36726;BME280;44936;52.086;5.150;2024-02-15T05:28:25;102240.81;;;12.70;100.00
36726;BME280;44936;52.086;5.150;2024-02-15T05:31:14;102266.56;;;12.87;100.00
36726;BME280;44936;52.086;5.150;2024-02-15T05:33:45;102248.09;;;12.84;100.00
36726;BME280;44936;52.086;5.150;2024-02-15T05:36:13;102207.75;;;12.88;100.00
36726;BME280;44936;52.086;5.150;2024-02-15T05:38:39;102169.75;;;12.72;100.00
36726;BME280;44936;52.086;5.150;2024-02-15T05:41:05;102185.63;;;12.75;100.00
36726;BME280;44936;52.086;5.150;2024-02-15T05:43:33;102226.91;;;12.77;100.00
36726;BME280;44936;52.086;5.150;2024-02-15T05:45:58;102230.50;;;12.83;100.00
36726;BME280;44936;52.086;5.150;2024-02-15T05:48:26;102225.25;;;12.83;100.00
36726;BME280;44936;52.086;5.150;2024-02-15T05:50:54;102234.97;;;12.88;100.00
36726;BME280;44936;52.086;5.150;2024-02-15T05:53:20;102228.81;;;12.88;100.00
36726;BME280;44936;52.086;5.150;2024-02-15T05:55:45;102217.34;;;12.81;100.00
36726;BME280;44936;52.086;5.150;2024-02-15T05:58:10;102231.47;;;12.89;100.00
36726;BME280;44936;52.086;5.150;2024-02-15T06:00:37;102227.94;;;12.89;100.00
36726;BME280;44936;52.086;5.150;2024-02-15T06:03:04;102238.41;;;12.83;100.00
36726;BME280;44936;52.086;5.150;2024-02-15T06:05:31;102229.66;;;12.85;100.00
36726;BME280;44936;52.086;5.150;2024-02-15T06:07:57;102227.94;;;12.87;100.00
36726;BME280;44936;52.086;5.150;2024-02-15T06:10:24;102235.81;;;12.86;100.00
36726;BME280;44936;52.086;5.150;2024-02-15T06:12:50;102230.44;;;12.80;100.00
36726;BME280;44936;52.086;5.150;2024-02-15T06:15:15;102229.44;;;12.71;100.00
36726;BME280;44936;52.086;5.150;2024-02-15T06:17:41;102242.66;;;12.74;100.00
36726;BME280;44936;52.086;5.150;2024-02-15T06:20:12;102247.19;;;12.82;100.00
36726;BME280;44936;52.086;5.150;2024-02-15T06:22:39;102238.34;;;12.80;100.00
36726;BME280;44936;52.086;5.150;2024-02-15T06:25:05;102241.09;;;12.86;100.00
36726;BME280;44936;52.086;5.150;2024-02-15T06:27:30;102240.09;;;12.81;100.00
36726;BME280;44936;52.086;5.150;2024-02-15T06:29:56;102241.16;;;12.90;100.00
36726;BME280;44936;52.086;5.150;2024-02-15T06:32:40;102233.13;;;12.81;100.00
36726;BME280;44936;52.086;5.150;2024-02-15T06:35:24;102229.56;;;12.81;100.00
36726;BME280;44936;52.086;5.150;2024-02-15T06:38:08;102230.59;;;12.89;100.00
36726;BME280;44936;52.086;5.150;2024-02-15T06:40:52;102218.22;;;12.82;100.00
36726;BME280;44936;52.086;5.150;2024-02-15T06:43:19;102215.66;;;12.88;100.00
36726;BME280;44936;52.086;5.150;2024-02-15T06:45:44;102214.00;;;12.94;100.00
36726;BME280;44936;52.086;5.150;2024-02-15T06:48:12;102221.88;;;12.93;100.00
36726;BME280;44936;52.086;5.150;2024-02-15T06:50:37;102212.06;;;12.81;100.00
36726;BME280;44936;52.086;5.150;2024-02-15T06:53:03;102215.50;;;12.77;100.00
36726;BME280;44936;52.086;5.150;2024-02-15T06:55:28;102217.34;;;12.83;100.00
36726;BME280;44936;52.086;5.150;2024-02-15T06:57:53;102218.28;;;12.88;100.00
36726;BME280;44936;52.086;5.150;2024-02-15T07:00:20;102218.28;;;12.86;100.00
36726;BME280;44936;52.086;5.150;2024-02-15T07:02:45;102224.44;;;12.88;100.00
36726;BME280;44936;52.086;5.150;2024-02-15T07:05:13;102228.06;;;12.96;100.00
36726;BME280;44936;52.086;5.150;2024-02-15T07:07:39;102228.88;;;12.91;100.00
36726;BME280;44936;52.086;5.150;2024-02-15T07:10:05;102206.81;;;12.81;100.00
36726;BME280;44936;52.086;5.150;2024-02-15T07:12:31;102215.72;;;12.91;100.00
36726;BME280;44936;52.086;5.150;2024-02-15T07:14:57;102228.97;;;12.97;100.00
36726;BME280;44936;52.086;5.150;2024-02-15T07:17:23;102236.06;;;13.01;100.00
36726;BME280;44936;52.086;5.150;2024-02-15T07:19:48;102248.38;;;13.02;100.00
36726;BME280;44936;52.086;5.150;2024-02-15T07:22:16;102234.91;;;12.84;100.00
36726;BME280;44936;52.086;5.150;2024-02-15T07:24:42;102268.47;;;12.98;100.00
36726;BME280;44936;52.086;5.150;2024-02-15T07:27:07;102264.22;;;13.07;100.00
36726;BME280;44936;52.086;5.150;2024-02-15T07:29:34;102264.94;;;12.96;100.00
36726;BME280;44936;52.086;5.150;2024-02-15T07:32:03;102231.63;;;12.98;100.00
36726;BME280;44936;52.086;5.150;2024-02-15T07:34:30;102222.78;;;12.93;100.00
36726;BME280;44936;52.086;5.150;2024-02-15T07:36:55;102238.53;;;12.90;100.00
36726;BME280;44936;52.086;5.150;2024-02-15T07:39:20;102235.91;;;12.92;100.00
36726;BME280;44936;52.086;5.150;2024-02-15T07:41:50;101958.63;;;12.99;100.00
36726;BME280;44936;52.086;5.150;2024-02-15T07:44:16;101989.25;;;12.91;100.00
36726;BME280;44936;52.086;5.150;2024-02-15T07:46:42;101970.88;;;12.97;100.00
36726;BME280;44936;52.086;5.150;2024-02-15T07:49:07;101928.81;;;13.03;100.00
36726;BME280;44936;52.086;5.150;2024-02-15T07:51:33;101953.31;;;12.96;100.00
36726;BME280;44936;52.086;5.150;2024-02-15T07:53:58;102046.47;;;13.04;100.00
36726;BME280;44936;52.086;5.150;2024-02-15T07:56:24;102159.72;;;13.04;100.00
36726;BME280;44936;52.086;5.150;2024-02-15T07:58:50;101897.09;;;12.91;100.00
36726;BME280;44936;52.086;5.150;2024-02-15T08:01:17;101867.28;;;12.95;100.00
36726;BME280;44936;52.086;5.150;2024-02-15T08:03:42;101948.91;;;12.93;100.00
36726;BME280;44936;52.086;5.150;2024-02-15T08:06:12;102047.97;;;12.84;100.00
36726;BME280;44936;52.086;5.150;2024-02-15T08:08:39;102120.94;;;12.92;100.00
36726;BME280;44936;52.086;5.150;2024-02-15T08:11:06;102129.63;;;12.87;100.00
36726;BME280;44936;52.086;5.150;2024-02-15T08:13:35;102123.63;;;12.98;100.00
36726;BME280;44936;52.086;5.150;2024-02-15T08:16:03;102019.88;;;12.83;100.00
36726;BME280;44936;52.086;5.150;2024-02-15T08:18:30;101897.91;;;12.87;100.00
36726;BME280;44936;52.086;5.150;2024-02-15T08:20:56;101852.16;;;12.74;100.00
36726;BME280;44936;52.086;5.150;2024-02-15T08:23:22;101827.69;;;12.84;100.00
36726;BME280;44936;52.086;5.150;2024-02-15T08:25:47;101856.75;;;12.95;100.00
36726;BME280;44936;52.086;5.150;2024-02-15T08:28:13;101919.88;;;12.89;100.00
36726;BME280;44936;52.086;5.150;2024-02-15T08:30:38;102034.06;;;12.94;100.00
36726;BME280;44936;52.086;5.150;2024-02-15T08:33:03;102149.28;;;13.10;100.00
36726;BME280;44936;52.086;5.150;2024-02-15T08:35:29;102187.78;;;13.00;100.00
36726;BME280;44936;52.086;5.150;2024-02-15T08:37:54;102213.34;;;13.08;100.00
36726;BME280;44936;52.086;5.150;2024-02-15T08:40:21;102216.78;;;13.05;100.00
36726;BME280;44936;52.086;5.150;2024-02-15T08:42:50;102235.31;;;13.08;100.00
36726;BME280;44936;52.086;5.150;2024-02-15T08:45:15;102252.00;;;13.10;100.00
36726;BME280;44936;52.086;5.150;2024-02-15T08:47:42;102267.00;;;13.16;100.00
36726;BME280;44936;52.086;5.150;2024-02-15T08:50:09;102271.34;;;13.12;100.00
36726;BME280;44936;52.086;5.150;2024-02-15T08:52:35;102281.88;;;13.12;100.00
36726;BME280;44936;52.086;5.150;2024-02-15T08:55:05;102286.31;;;13.15;100.00
36726;BME280;44936;52.086;5.150;2024-02-15T08:57:32;102304.59;;;13.05;100.00
36726;BME280;44936;52.086;5.150;2024-02-15T08:59:57;102298.56;;;13.13;100.00
36726;BME280;44936;52.086;5.150;2024-02-15T09:02:23;102307.50;;;13.19;100.00
36726;BME280;44936;52.086;5.150;2024-02-15T09:04:48;102290.50;;;13.02;100.00
36726;BME280;44936;52.086;5.150;2024-02-15T09:07:14;102309.22;;;13.19;100.00
36726;BME280;44936;52.086;5.150;2024-02-15T09:09:39;102319.06;;;13.27;100.00
36726;BME280;44936;52.086;5.150;2024-02-15T09:12:05;102320.00;;;13.32;100.00
36726;BME280;44936;52.086;5.150;2024-02-15T09:14:32;102317.22;;;13.23;100.00
36726;BME280;44936;52.086;5.150;2024-02-15T09:16:58;102321.69;;;13.27;100.00
36726;BME280;44936;52.086;5.150;2024-02-15T09:19:23;102324.38;;;13.33;100.00
36726;BME280;44936;52.086;5.150;2024-02-15T09:21:49;102315.56;;;13.30;100.00
36726;BME280;44936;52.086;5.150;2024-02-15T09:24:14;102327.91;;;13.32;100.00
36726;BME280;44936;52.086;5.150;2024-02-15T09:26:41;102322.72;;;13.39;100.00
36726;BME280;44936;52.086;5.150;2024-02-15T09:29:07;102331.69;;;13.51;100.00
36726;BME280;44936;52.086;5.150;2024-02-15T09:31:32;102342.34;;;13.59;100.00
36726;BME280;44936;52.086;5.150;2024-02-15T09:33:59;102344.16;;;13.62;100.00
36726;BME280;44936;52.086;5.150;2024-02-15T09:36:25;102345.94;;;13.63;100.00
36726;BME280;44936;52.086;5.150;2024-02-15T09:38:50;102338.72;;;13.51;100.00
36726;BME280;44936;52.086;5.150;2024-02-15T09:41:15;102330.88;;;13.54;100.00
36726;BME280;44936;52.086;5.150;2024-02-15T09:43:41;102337.94;;;13.58;100.00
36726;BME280;44936;52.086;5.150;2024-02-15T09:46:06;102339.81;;;13.67;100.00
36726;BME280;44936;52.086;5.150;2024-02-15T09:48:32;102336.03;;;13.48;100.00
36726;BME280;44936;52.086;5.150;2024-02-15T09:50:57;102350.88;;;13.43;100.00
36726;BME280;44936;52.086;5.150;2024-02-15T09:53:23;102308.63;;;13.35;100.00
36726;BME280;44936;52.086;5.150;2024-02-15T09:55:53;102318.47;;;13.48;100.00
36726;BME280;44936;52.086;5.150;2024-02-15T09:58:19;102341.59;;;13.68;100.00
36726;BME280;44936;52.086;5.150;2024-02-15T10:00:45;102313.28;;;13.53;100.00
36726;BME280;44936;52.086;5.150;2024-02-15T10:03:16;102361.88;;;13.70;100.00
36726;BME280;44936;52.086;5.150;2024-02-15T10:05:43;102353.97;;;13.72;100.00
36726;BME280;44936;52.086;5.150;2024-02-15T10:08:08;102318.56;;;13.54;100.00
36726;BME280;44936;52.086;5.150;2024-02-15T10:10:36;102349.72;;;13.81;100.00
36726;BME280;44936;52.086;5.150;2024-02-15T10:13:01;102312.56;;;13.66;100.00
36726;BME280;44936;52.086;5.150;2024-02-15T10:15:34;102364.66;;;13.82;100.00
36726;BME280;44936;52.086;5.150;2024-02-15T10:18:09;102349.63;;;13.75;100.00
36726;BME280;44936;52.086;5.150;2024-02-15T10:20:41;102357.63;;;13.81;100.00
36726;BME280;44936;52.086;5.150;2024-02-15T10:23:14;102338.94;;;13.66;100.00
36726;BME280;44936;52.086;5.150;2024-02-15T10:25:42;102359.22;;;13.70;100.00
36726;BME280;44936;52.086;5.150;2024-02-15T10:28:09;102332.91;;;13.73;100.00
36726;BME280;44936;52.086;5.150;2024-02-15T10:30:39;102355.19;;;13.97;100.00
36726;BME280;44936;52.086;5.150;2024-02-15T10:33:05;102333.75;;;13.72;100.00
36726;BME280;44936;52.086;5.150;2024-02-15T10:35:32;102351.59;;;13.92;100.00
36726;BME280;44936;52.086;5.150;2024-02-15T10:38:25;102345.56;;;14.02;100.00
36726;BME280;44936;52.086;5.150;2024-02-15T10:41:03;102347.41;;;14.06;100.00
36726;BME280;44936;52.086;5.150;2024-02-15T10:43:30;102331.50;;;14.01;100.00
36726;BME280;44936;52.086;5.150;2024-02-15T10:45:56;102343.13;;;14.14;100.00
36726;BME280;44936;52.086;5.150;2024-02-15T10:48:21;102329.06;;;14.18;100.00
36726;BME280;44936;52.086;5.150;2024-02-15T10:50:47;102335.38;;;14.31;100.00
36726;BME280;44936;52.086;5.150;2024-02-15T10:53:26;102332.78;;;14.35;100.00
36726;BME280;44936;52.086;5.150;2024-02-15T10:58:46;102329.34;;;14.41;100.00
36726;BME280;44936;52.086;5.150;2024-02-15T11:01:16;102324.22;;;14.52;100.00
36726;BME280;44936;52.086;5.150;2024-02-15T11:03:57;102320.50;;;14.39;100.00
36726;BME280;44936;52.086;5.150;2024-02-15T11:06:26;102320.50;;;14.39;100.00
36726;BME280;44936;52.086;5.150;2024-02-15T11:08:52;102314.19;;;14.23;100.00
36726;BME280;44936;52.086;5.150;2024-02-15T11:11:19;102308.03;;;14.24;100.00
36726;BME280;44936;52.086;5.150;2024-02-15T11:13:46;102318.66;;;14.30;100.00
36726;BME280;44936;52.086;5.150;2024-02-15T11:16:41;102313.44;;;14.36;100.00
36726;BME280;44936;52.086;5.150;2024-02-15T11:19:08;102318.75;;;14.39;100.00
36726;BME280;44936;52.086;5.150;2024-02-15T11:21:54;102323.28;;;14.48;100.00
36726;BME280;44936;52.086;5.150;2024-02-15T11:24:26;102297.59;;;14.36;100.00
36726;BME280;44936;52.086;5.150;2024-02-15T11:27:00;102303.91;;;14.46;100.00
36726;BME280;44936;52.086;5.150;2024-02-15T11:32:46;102297.91;;;14.61;100.00
36726;BME280;44936;52.086;5.150;2024-02-15T11:35:17;102304.97;;;14.66;100.00
36726;BME280;44936;52.086;5.150;2024-02-15T11:40:26;102280.31;;;14.66;100.00
36726;BME280;44936;52.086;5.150;2024-02-15T11:42:59;102267.91;;;14.57;100.00
36726;BME280;44936;52.086;5.150;2024-02-15T11:45:25;102267.09;;;14.63;100.00
36726;BME280;44936;52.086;5.150;2024-02-15T11:47:53;102245.97;;;14.60;100.00
36726;BME280;44936;52.086;5.150;2024-02-15T11:50:20;102259.19;;;14.66;100.00
36726;BME280;44936;52.086;5.150;2024-02-15T11:52:47;102255.72;;;14.67;100.00
36726;BME280;44936;52.086;5.150;2024-02-15T11:55:20;102253.16;;;14.79;100.00
36726;BME280;44936;52.086;5.150;2024-02-15T11:57:59;102234.69;;;14.81;100.00
36726;BME280;44936;52.086;5.150;2024-02-15T12:00:33;102217.97;;;14.83;100.00
36726;BME280;44936;52.086;5.150;2024-02-15T12:03:18;102220.66;;;14.86;100.00
36726;BME280;44936;52.086;5.150;2024-02-15T12:06:02;102226.00;;;14.98;100.00
36726;BME280;44936;52.086;5.150;2024-02-15T12:08:47;102221.66;;;15.07;100.00
36726;BME280;44936;52.086;5.150;2024-02-15T12:11:31;102207.56;;;15.09;100.00
36726;BME280;44936;52.086;5.150;2024-02-15T12:14:16;102190.00;;;15.14;100.00
36726;BME280;44936;52.086;5.150;2024-02-15T12:19:44;102189.16;;;15.21;100.00
36726;BME280;44936;52.086;5.150;2024-02-15T12:22:09;102187.41;;;15.25;100.00
36726;BME280;44936;52.086;5.150;2024-02-15T12:24:35;102162.69;;;15.14;100.00
36726;BME280;44936;52.086;5.150;2024-02-15T12:27:01;102155.59;;;15.10;100.00
36726;BME280;44936;52.086;5.150;2024-02-15T12:29:28;102193.56;;;15.24;100.00
36726;BME280;44936;52.086;5.150;2024-02-15T12:31:54;102191.84;;;15.32;100.00
36726;BME280;44936;52.086;5.150;2024-02-15T12:34:20;102157.44;;;15.21;100.00
36726;BME280;44936;52.086;5.150;2024-02-15T12:36:45;102168.03;;;15.27;100.00
36726;BME280;44936;52.086;5.150;2024-02-15T12:39:11;102155.69;;;15.28;100.00
36726;BME280;44936;52.086;5.150;2024-02-15T12:41:48;102151.31;;;15.36;100.00
36726;BME280;44936;52.086;5.150;2024-02-15T12:44:18;102165.44;;;15.46;100.00
36726;BME280;44936;52.086;5.150;2024-02-15T12:46:53;102143.38;;;15.30;100.00
36726;BME280;44936;52.086;5.150;2024-02-15T12:51:53;102154.88;;;15.43;100.00
36726;BME280;44936;52.086;5.150;2024-02-15T12:54:22;102156.59;;;15.28;100.00
36726;BME280;44936;52.086;5.150;2024-02-15T12:56:48;102141.63;;;15.29;100.00